sensor_id;sensor_type;location;lat;lon;timestamp;P1;durP1;ratioP1;P2;durP2;ratioP2
40649;SDS011;26342;42.826;23.992;2022-12-07T00:03:53;21.80;;;14.07;;
40649;SDS011;26342;42.826;23.992;2022-12-07T00:06:22;15.65;;;10.50;;
40649;SDS011;26342;42.826;23.992;2022-12-07T00:08:47;13.85;;;11.48;;
40649;SDS011;26342;42.826;23.992;2022-12-07T00:11:17;18.92;;;11.30;;
40649;SDS011;26342;42.826;23.992;2022-12-07T00:13:46;15.10;;;9.00;;
40649;SDS011;26342;42.826;23.992;2022-12-07T00:16:14;7.32;;;5.95;;
40649;SDS011;26342;42.826;23.992;2022-12-07T00:18:42;9.88;;;6.50;;
40649;SDS011;26342;42.826;23.992;2022-12-07T00:21:15;5.30;;;3.63;;
40649;SDS011;26342;42.826;23.992;2022-12-07T00:23:43;10.13;;;5.68;;
40649;SDS011;26342;42.826;23.992;2022-12-07T00:26:11;13.15;;;6.45;;
40649;SDS011;26342;42.826;23.992;2022-12-07T00:28:37;4.28;;;3.50;;
40649;SDS011;26342;42.826;23.992;2022-12-07T00:31:04;7.15;;;4.22;;
40649;SDS011;26342;42.826;23.992;2022-12-07T00:33:32;3.33;;;2.30;;
40649;SDS011;26342;42.826;23.992;2022-12-07T00:35:59;2.67;;;2.47;;
40649;SDS011;26342;42.826;23.992;2022-12-07T00:38:27;4.22;;;2.38;;
40649;SDS011;26342;42.826;23.992;2022-12-07T00:40:58;3.00;;;2.75;;
40649;SDS011;26342;42.826;23.992;2022-12-07T00:43:24;2.20;;;1.88;;
40649;SDS011;26342;42.826;23.992;2022-12-07T00:45:50;4.53;;;4.10;;
40649;SDS011;26342;42.826;23.992;2022-12-07T00:48:16;2.85;;;2.38;;
40649;SDS011;26342;42.826;23.992;2022-12-07T00:50:41;2.10;;;1.17;;
40649;SDS011;26342;42.826;23.992;2022-12-07T00:53:07;9.18;;;3.53;;
40649;SDS011;26342;42.826;23.992;2022-12-07T00:55:33;4.15;;;2.92;;
40649;SDS011;26342;42.826;23.992;2022-12-07T00:57:58;1.75;;;1.25;;
40649;SDS011;26342;42.826;23.992;2022-12-07T01:00:24;2.50;;;1.95;;
40649;SDS011;26342;42.826;23.992;2022-12-07T01:02:49;5.55;;;1.45;;
40649;SDS011;26342;42.826;23.992;2022-12-07T01:05:15;7.40;;;2.42;;
40649;SDS011;26342;42.826;23.992;2022-12-07T01:07:40;5.47;;;3.30;;
40649;SDS011;26342;42.826;23.992;2022-12-07T01:10:06;4.95;;;3.65;;
40649;SDS011;26342;42.826;23.992;2022-12-07T01:12:31;6.50;;;3.22;;
40649;SDS011;26342;42.826;23.992;2022-12-07T01:14:57;8.00;;;4.00;;
40649;SDS011;26342;42.826;23.992;2022-12-07T01:17:22;3.83;;;3.03;;
40649;SDS011;26342;42.826;23.992;2022-12-07T01:19:48;5.55;;;3.70;;
40649;SDS011;26342;42.826;23.992;2022-12-07T01:22:13;4.07;;;3.15;;
40649;SDS011;26342;42.826;23.992;2022-12-07T01:24:39;5.47;;;4.78;;
40649;SDS011;26342;42.826;23.992;2022-12-07T01:27:04;6.88;;;4.88;;
40649;SDS011;26342;42.826;23.992;2022-12-07T01:29:29;3.28;;;2.97;;
40649;SDS011;26342;42.826;23.992;2022-12-07T01:31:55;7.07;;;5.38;;
40649;SDS011;26342;42.826;23.992;2022-12-07T01:34:20;7.00;;;4.18;;
40649;SDS011;26342;42.826;23.992;2022-12-07T01:36:47;12.13;;;7.68;;
40649;SDS011;26342;42.826;23.992;2022-12-07T01:39:12;10.77;;;3.58;;
40649;SDS011;26342;42.826;23.992;2022-12-07T01:41:38;6.72;;;4.88;;
40649;SDS011;26342;42.826;23.992;2022-12-07T01:44:13;14.32;;;7.32;;
40649;SDS011;26342;42.826;23.992;2022-12-07T01:46:59;10.77;;;5.75;;
40649;SDS011;26342;42.826;23.992;2022-12-07T01:51:52;12.65;;;5.82;;
40649;SDS011;26342;42.826;23.992;2022-12-07T01:54:28;10.80;;;5.65;;
40649;SDS011;26342;42.826;23.992;2022-12-07T01:56:54;7.40;;;5.97;;
40649;SDS011;26342;42.826;23.992;2022-12-07T01:59:23;5.68;;;4.22;;
40649;SDS011;26342;42.826;23.992;2022-12-07T02:01:50;10.07;;;3.20;;
40649;SDS011;26342;42.826;23.992;2022-12-07T02:04:17;8.95;;;4.35;;
40649;SDS011;26342;42.826;23.992;2022-12-07T02:06:43;4.78;;;4.32;;
40649;SDS011;26342;42.826;23.992;2022-12-07T02:09:09;6.53;;;3.95;;
40649;SDS011;26342;42.826;23.992;2022-12-07T02:11:35;4.82;;;3.53;;
40649;SDS011;26342;42.826;23.992;2022-12-07T02:14:01;6.30;;;4.10;;
40649;SDS011;26342;42.826;23.992;2022-12-07T02:16:36;11.70;;;3.83;;
40649;SDS011;26342;42.826;23.992;2022-12-07T02:22:01;3.92;;;2.35;;
40649;SDS011;26342;42.826;23.992;2022-12-07T02:28:01;3.78;;;3.47;;
40649;SDS011;26342;42.826;23.992;2022-12-07T02:30:33;6.00;;;2.83;;
40649;SDS011;26342;42.826;23.992;2022-12-07T02:33:05;6.95;;;3.90;;
40649;SDS011;26342;42.826;23.992;2022-12-07T02:35:46;3.53;;;2.30;;
40649;SDS011;26342;42.826;23.992;2022-12-07T02:38:31;10.45;;;6.40;;
40649;SDS011;26342;42.826;23.992;2022-12-07T02:41:04;8.02;;;5.80;;
40649;SDS011;26342;42.826;23.992;2022-12-07T02:43:39;9.88;;;8.15;;
40649;SDS011;26342;42.826;23.992;2022-12-07T02:48:36;9.52;;;5.10;;
40649;SDS011;26342;42.826;23.992;2022-12-07T02:51:04;5.07;;;3.65;;
40649;SDS011;26342;42.826;23.992;2022-12-07T02:56:03;14.32;;;6.30;;
40649;SDS011;26342;42.826;23.992;2022-12-07T03:10:45;4.78;;;3.55;;
40649;SDS011;26342;42.826;23.992;2022-12-07T03:13:58;9.52;;;4.25;;
40649;SDS011;26342;42.826;23.992;2022-12-07T03:16:08;10.27;;;5.78;;
40649;SDS011;26342;42.826;23.992;2022-12-07T03:18:38;14.95;;;7.13;;
40649;SDS011;26342;42.826;23.992;2022-12-07T03:21:09;6.05;;;3.92;;
40649;SDS011;26342;42.826;23.992;2022-12-07T03:23:39;16.15;;;4.88;;
40649;SDS011;26342;42.826;23.992;2022-12-07T03:26:06;11.13;;;5.30;;
40649;SDS011;26342;42.826;23.992;2022-12-07T03:28:36;6.85;;;3.85;;
40649;SDS011;26342;42.826;23.992;2022-12-07T03:33:46;7.45;;;3.88;;
40649;SDS011;26342;42.826;23.992;2022-12-07T03:36:40;16.45;;;3.47;;
40649;SDS011;26342;42.826;23.992;2022-12-07T03:39:08;4.75;;;4.20;;
40649;SDS011;26342;42.826;23.992;2022-12-07T03:41:43;8.98;;;4.28;;
40649;SDS011;26342;42.826;23.992;2022-12-07T03:44:09;12.50;;;4.10;;
40649;SDS011;26342;42.826;23.992;2022-12-07T03:46:37;8.02;;;3.15;;
40649;SDS011;26342;42.826;23.992;2022-12-07T03:49:22;5.13;;;3.08;;
40649;SDS011;26342;42.826;23.992;2022-12-07T03:54:32;8.90;;;7.07;;
40649;SDS011;26342;42.826;23.992;2022-12-07T03:57:02;4.18;;;3.30;;
40649;SDS011;26342;42.826;23.992;2022-12-07T03:59:29;5.68;;;4.47;;
40649;SDS011;26342;42.826;23.992;2022-12-07T04:01:56;6.50;;;4.95;;
40649;SDS011;26342;42.826;23.992;2022-12-07T04:04:26;6.50;;;4.28;;
40649;SDS011;26342;42.826;23.992;2022-12-07T04:06:52;7.68;;;4.35;;
40649;SDS011;26342;42.826;23.992;2022-12-07T04:09:18;12.40;;;4.25;;
40649;SDS011;26342;42.826;23.992;2022-12-07T04:11:43;7.25;;;4.07;;
40649;SDS011;26342;42.826;23.992;2022-12-07T04:14:09;5.80;;;4.20;;
40649;SDS011;26342;42.826;23.992;2022-12-07T04:17:04;9.98;;;6.97;;
40649;SDS011;26342;42.826;23.992;2022-12-07T04:19:30;6.75;;;4.70;;
40649;SDS011;26342;42.826;23.992;2022-12-07T04:21:58;8.25;;;4.68;;
40649;SDS011;26342;42.826;23.992;2022-12-07T04:24:24;11.65;;;5.95;;
40649;SDS011;26342;42.826;23.992;2022-12-07T04:26:50;6.68;;;5.03;;
40649;SDS011;26342;42.826;23.992;2022-12-07T04:29:16;18.05;;;6.47;;
40649;SDS011;26342;42.826;23.992;2022-12-07T04:31:42;14.18;;;6.40;;
40649;SDS011;26342;42.826;23.992;2022-12-07T04:34:08;10.93;;;5.85;;
40649;SDS011;26342;42.826;23.992;2022-12-07T04:36:35;6.60;;;4.25;;
40649;SDS011;26342;42.826;23.992;2022-12-07T04:39:01;10.75;;;6.45;;
40649;SDS011;26342;42.826;23.992;2022-12-07T04:41:27;6.07;;;5.13;;
40649;SDS011;26342;42.826;23.992;2022-12-07T04:43:53;8.65;;;5.53;;
40649;SDS011;26342;42.826;23.992;2022-12-07T04:46:20;22.20;;;5.03;;
40649;SDS011;26342;42.826;23.992;2022-12-07T04:48:45;5.60;;;4.82;;
40649;SDS011;26342;42.826;23.992;2022-12-07T04:51:10;7.30;;;6.25;;
40649;SDS011;26342;42.826;23.992;2022-12-07T04:53:36;4.90;;;4.50;;
40649;SDS011;26342;42.826;23.992;2022-12-07T04:56:01;12.23;;;7.18;;
40649;SDS011;26342;42.826;23.992;2022-12-07T04:58:27;18.15;;;9.32;;
40649;SDS011;26342;42.826;23.992;2022-12-07T05:00:56;20.52;;;8.75;;
40649;SDS011;26342;42.826;23.992;2022-12-07T05:03:21;10.02;;;7.60;;
40649;SDS011;26342;42.826;23.992;2022-12-07T05:05:47;9.85;;;8.75;;
40649;SDS011;26342;42.826;23.992;2022-12-07T05:08:12;8.43;;;6.45;;
40649;SDS011;26342;42.826;23.992;2022-12-07T05:10:37;14.35;;;6.43;;
40649;SDS011;26342;42.826;23.992;2022-12-07T05:13:03;15.57;;;11.88;;
40649;SDS011;26342;42.826;23.992;2022-12-07T05:15:28;16.40;;;9.80;;
40649;SDS011;26342;42.826;23.992;2022-12-07T05:17:53;15.70;;;7.38;;
40649;SDS011;26342;42.826;23.992;2022-12-07T05:20:19;10.32;;;6.25;;
40649;SDS011;26342;42.826;23.992;2022-12-07T05:22:44;10.95;;;6.05;;
40649;SDS011;26342;42.826;23.992;2022-12-07T05:25:10;9.00;;;6.85;;
40649;SDS011;26342;42.826;23.992;2022-12-07T05:27:35;13.07;;;8.50;;
40649;SDS011;26342;42.826;23.992;2022-12-07T05:30:01;15.82;;;8.90;;
40649;SDS011;26342;42.826;23.992;2022-12-07T05:32:26;12.52;;;7.53;;
40649;SDS011;26342;42.826;23.992;2022-12-07T05:34:51;23.23;;;13.50;;
40649;SDS011;26342;42.826;23.992;2022-12-07T05:37:19;16.58;;;12.48;;
40649;SDS011;26342;42.826;23.992;2022-12-07T05:39:45;19.23;;;10.80;;
40649;SDS011;26342;42.826;23.992;2022-12-07T05:42:10;20.65;;;9.27;;
40649;SDS011;26342;42.826;23.992;2022-12-07T05:44:43;18.52;;;10.60;;
40649;SDS011;26342;42.826;23.992;2022-12-07T05:47:10;19.08;;;8.93;;
40649;SDS011;26342;42.826;23.992;2022-12-07T05:49:36;18.70;;;9.45;;
40649;SDS011;26342;42.826;23.992;2022-12-07T05:52:02;15.75;;;10.23;;
40649;SDS011;26342;42.826;23.992;2022-12-07T05:54:28;25.48;;;10.20;;
40649;SDS011;26342;42.826;23.992;2022-12-07T05:56:54;19.83;;;9.07;;
40649;SDS011;26342;42.826;23.992;2022-12-07T05:59:19;17.60;;;8.30;;
40649;SDS011;26342;42.826;23.992;2022-12-07T06:02:01;9.75;;;5.75;;
40649;SDS011;26342;42.826;23.992;2022-12-07T06:04:29;19.83;;;12.68;;
40649;SDS011;26342;42.826;23.992;2022-12-07T06:06:57;14.52;;;9.30;;
40649;SDS011;26342;42.826;23.992;2022-12-07T06:09:23;11.75;;;8.20;;
40649;SDS011;26342;42.826;23.992;2022-12-07T06:11:50;8.20;;;7.30;;
40649;SDS011;26342;42.826;23.992;2022-12-07T06:14:34;10.02;;;6.97;;
40649;SDS011;26342;42.826;23.992;2022-12-07T06:17:00;11.65;;;7.97;;
40649;SDS011;26342;42.826;23.992;2022-12-07T06:19:25;6.70;;;5.80;;
40649;SDS011;26342;42.826;23.992;2022-12-07T06:21:51;15.98;;;8.63;;
40649;SDS011;26342;42.826;23.992;2022-12-07T06:24:17;13.77;;;9.43;;
40649;SDS011;26342;42.826;23.992;2022-12-07T06:26:43;17.90;;;8.13;;
40649;SDS011;26342;42.826;23.992;2022-12-07T06:29:09;9.00;;;7.93;;
40649;SDS011;26342;42.826;23.992;2022-12-07T06:31:36;14.48;;;8.38;;
40649;SDS011;26342;42.826;23.992;2022-12-07T06:34:02;11.55;;;7.57;;
40649;SDS011;26342;42.826;23.992;2022-12-07T06:36:30;10.27;;;7.60;;
40649;SDS011;26342;42.826;23.992;2022-12-07T06:38:56;14.20;;;9.52;;
40649;SDS011;26342;42.826;23.992;2022-12-07T06:41:22;21.83;;;10.90;;
40649;SDS011;26342;42.826;23.992;2022-12-07T06:43:48;13.68;;;9.40;;
40649;SDS011;26342;42.826;23.992;2022-12-07T06:46:14;14.45;;;10.63;;
40649;SDS011;26342;42.826;23.992;2022-12-07T06:48:40;16.92;;;11.05;;
40649;SDS011;26342;42.826;23.992;2022-12-07T06:51:06;21.98;;;12.35;;
40649;SDS011;26342;42.826;23.992;2022-12-07T06:53:32;29.25;;;15.15;;
40649;SDS011;26342;42.826;23.992;2022-12-07T06:55:57;19.67;;;14.77;;
40649;SDS011;26342;42.826;23.992;2022-12-07T06:58:23;18.77;;;12.95;;
40649;SDS011;26342;42.826;23.992;2022-12-07T07:00:48;21.58;;;13.18;;
40649;SDS011;26342;42.826;23.992;2022-12-07T07:03:15;23.70;;;15.43;;
40649;SDS011;26342;42.826;23.992;2022-12-07T07:05:41;26.52;;;12.77;;
40649;SDS011;26342;42.826;23.992;2022-12-07T07:08:07;23.00;;;16.27;;
40649;SDS011;26342;42.826;23.992;2022-12-07T07:10:33;29.48;;;16.42;;
40649;SDS011;26342;42.826;23.992;2022-12-07T07:12:58;25.02;;;15.48;;
40649;SDS011;26342;42.826;23.992;2022-12-07T07:15:23;25.20;;;17.35;;
40649;SDS011;26342;42.826;23.992;2022-12-07T07:17:49;31.15;;;18.55;;
40649;SDS011;26342;42.826;23.992;2022-12-07T07:20:14;27.40;;;16.30;;
40649;SDS011;26342;42.826;23.992;2022-12-07T07:22:40;27.65;;;14.40;;
40649;SDS011;26342;42.826;23.992;2022-12-07T07:25:06;30.08;;;14.85;;
40649;SDS011;26342;42.826;23.992;2022-12-07T07:27:31;23.33;;;15.45;;
40649;SDS011;26342;42.826;23.992;2022-12-07T07:29:57;24.90;;;17.13;;
40649;SDS011;26342;42.826;23.992;2022-12-07T07:32:22;27.98;;;15.00;;
40649;SDS011;26342;42.826;23.992;2022-12-07T07:34:48;28.15;;;16.80;;
40649;SDS011;26342;42.826;23.992;2022-12-07T07:37:13;22.67;;;14.85;;
40649;SDS011;26342;42.826;23.992;2022-12-07T07:39:39;18.13;;;14.57;;
40649;SDS011;26342;42.826;23.992;2022-12-07T07:42:04;21.08;;;13.23;;
40649;SDS011;26342;42.826;23.992;2022-12-07T07:44:30;29.02;;;13.05;;
40649;SDS011;26342;42.826;23.992;2022-12-07T07:46:56;19.08;;;10.32;;
40649;SDS011;26342;42.826;23.992;2022-12-07T07:49:21;17.17;;;11.55;;
40649;SDS011;26342;42.826;23.992;2022-12-07T07:51:47;8.57;;;7.00;;
40649;SDS011;26342;42.826;23.992;2022-12-07T07:54:12;17.45;;;11.10;;
40649;SDS011;26342;42.826;23.992;2022-12-07T07:56:39;6.43;;;4.15;;
40649;SDS011;26342;42.826;23.992;2022-12-07T07:59:04;5.28;;;3.70;;
40649;SDS011;26342;42.826;23.992;2022-12-07T08:01:30;10.50;;;5.97;;
40649;SDS011;26342;42.826;23.992;2022-12-07T08:03:55;12.30;;;7.63;;
40649;SDS011;26342;42.826;23.992;2022-12-07T08:06:20;14.10;;;8.02;;
40649;SDS011;26342;42.826;23.992;2022-12-07T08:08:46;13.55;;;7.38;;
40649;SDS011;26342;42.826;23.992;2022-12-07T08:11:11;10.32;;;8.05;;
40649;SDS011;26342;42.826;23.992;2022-12-07T08:13:37;16.05;;;7.82;;
40649;SDS011;26342;42.826;23.992;2022-12-07T08:16:03;5.68;;;5.10;;
40649;SDS011;26342;42.826;23.992;2022-12-07T08:18:30;11.20;;;6.93;;
40649;SDS011;26342;42.826;23.992;2022-12-07T08:20:59;14.70;;;9.23;;
40649;SDS011;26342;42.826;23.992;2022-12-07T08:23:25;7.60;;;6.03;;
40649;SDS011;26342;42.826;23.992;2022-12-07T08:25:51;6.97;;;5.18;;
40649;SDS011;26342;42.826;23.992;2022-12-07T08:28:17;5.82;;;4.97;;
40649;SDS011;26342;42.826;23.992;2022-12-07T08:30:42;18.35;;;6.15;;
40649;SDS011;26342;42.826;23.992;2022-12-07T08:33:08;11.55;;;7.68;;
40649;SDS011;26342;42.826;23.992;2022-12-07T08:35:35;11.10;;;6.57;;
40649;SDS011;26342;42.826;23.992;2022-12-07T08:38:00;20.95;;;11.00;;
40649;SDS011;26342;42.826;23.992;2022-12-07T08:40:27;17.55;;;9.80;;
40649;SDS011;26342;42.826;23.992;2022-12-07T08:42:53;16.40;;;10.02;;
40649;SDS011;26342;42.826;23.992;2022-12-07T08:45:19;21.52;;;11.65;;
40649;SDS011;26342;42.826;23.992;2022-12-07T08:47:53;21.25;;;11.82;;
40649;SDS011;26342;42.826;23.992;2022-12-07T08:50:23;15.15;;;10.32;;
40649;SDS011;26342;42.826;23.992;2022-12-07T08:52:52;11.55;;;7.55;;
40649;SDS011;26342;42.826;23.992;2022-12-07T08:55:21;12.80;;;6.13;;
40649;SDS011;26342;42.826;23.992;2022-12-07T08:57:48;14.35;;;11.40;;
40649;SDS011;26342;42.826;23.992;2022-12-07T09:00:14;16.50;;;9.18;;
40649;SDS011;26342;42.826;23.992;2022-12-07T09:02:42;19.92;;;9.70;;
40649;SDS011;26342;42.826;23.992;2022-12-07T09:05:09;11.25;;;7.25;;
40649;SDS011;26342;42.826;23.992;2022-12-07T09:07:35;13.07;;;8.23;;
40649;SDS011;26342;42.826;23.992;2022-12-07T09:10:01;19.40;;;9.48;;
40649;SDS011;26342;42.826;23.992;2022-12-07T09:12:27;41.03;;;22.80;;
40649;SDS011;26342;42.826;23.992;2022-12-07T09:14:53;32.83;;;14.30;;
40649;SDS011;26342;42.826;23.992;2022-12-07T09:17:18;17.75;;;10.00;;
40649;SDS011;26342;42.826;23.992;2022-12-07T09:19:44;7.10;;;4.65;;
40649;SDS011;26342;42.826;23.992;2022-12-07T09:22:09;4.25;;;3.38;;
40649;SDS011;26342;42.826;23.992;2022-12-07T09:24:35;7.90;;;3.47;;
40649;SDS011;26342;42.826;23.992;2022-12-07T09:27:01;5.82;;;4.15;;
40649;SDS011;26342;42.826;23.992;2022-12-07T09:29:26;6.30;;;5.32;;
40649;SDS011;26342;42.826;23.992;2022-12-07T09:31:52;10.40;;;6.82;;
40649;SDS011;26342;42.826;23.992;2022-12-07T09:34:17;8.15;;;5.53;;
40649;SDS011;26342;42.826;23.992;2022-12-07T09:36:43;20.38;;;9.38;;
40649;SDS011;26342;42.826;23.992;2022-12-07T09:39:09;13.90;;;10.70;;
40649;SDS011;26342;42.826;23.992;2022-12-07T09:41:37;10.68;;;7.10;;
40649;SDS011;26342;42.826;23.992;2022-12-07T09:44:05;12.52;;;9.65;;
40649;SDS011;26342;42.826;23.992;2022-12-07T09:46:36;31.92;;;16.92;;
40649;SDS011;26342;42.826;23.992;2022-12-07T09:49:18;14.48;;;9.10;;
40649;SDS011;26342;42.826;23.992;2022-12-07T09:51:45;12.57;;;10.80;;
40649;SDS011;26342;42.826;23.992;2022-12-07T09:54:14;27.20;;;15.65;;
40649;SDS011;26342;42.826;23.992;2022-12-07T09:56:42;19.10;;;12.63;;
40649;SDS011;26342;42.826;23.992;2022-12-07T09:59:11;13.68;;;10.05;;
40649;SDS011;26342;42.826;23.992;2022-12-07T10:01:41;20.00;;;9.80;;
40649;SDS011;26342;42.826;23.992;2022-12-07T10:04:14;17.50;;;10.50;;
40649;SDS011;26342;42.826;23.992;2022-12-07T10:06:41;15.10;;;9.48;;
40649;SDS011;26342;42.826;23.992;2022-12-07T10:09:14;20.10;;;8.80;;
40649;SDS011;26342;42.826;23.992;2022-12-07T10:17:40;17.95;;;11.15;;
40649;SDS011;26342;42.826;23.992;2022-12-07T10:25:31;15.05;;;8.48;;
40649;SDS011;26342;42.826;23.992;2022-12-07T10:28:17;8.45;;;5.80;;
40649;SDS011;26342;42.826;23.992;2022-12-07T10:30:57;20.83;;;9.93;;
40649;SDS011;26342;42.826;23.992;2022-12-07T10:36:26;8.48;;;6.95;;
40649;SDS011;26342;42.826;23.992;2022-12-07T10:41:24;21.10;;;9.32;;
40649;SDS011;26342;42.826;23.992;2022-12-07T10:43:51;11.65;;;7.63;;
40649;SDS011;26342;42.826;23.992;2022-12-07T10:46:28;9.93;;;5.10;;
40649;SDS011;26342;42.826;23.992;2022-12-07T10:49:13;9.50;;;5.57;;
40649;SDS011;26342;42.826;23.992;2022-12-07T10:52:09;3.58;;;3.28;;
40649;SDS011;26342;42.826;23.992;2022-12-07T10:59:55;10.45;;;7.35;;
40649;SDS011;26342;42.826;23.992;2022-12-07T11:10:55;8.52;;;4.40;;
40649;SDS011;26342;42.826;23.992;2022-12-07T11:13:47;18.33;;;8.30;;
40649;SDS011;26342;42.826;23.992;2022-12-07T11:28:20;10.63;;;8.48;;
40649;SDS011;26342;42.826;23.992;2022-12-07T11:36:33;23.60;;;12.10;;
40649;SDS011;26342;42.826;23.992;2022-12-07T11:41:48;14.73;;;9.85;;
40649;SDS011;26342;42.826;23.992;2022-12-07T11:44:24;24.05;;;9.38;;
40649;SDS011;26342;42.826;23.992;2022-12-07T11:46:56;15.05;;;10.00;;
40649;SDS011;26342;42.826;23.992;2022-12-07T11:52:05;2.17;;;1.98;;
40649;SDS011;26342;42.826;23.992;2022-12-07T11:54:55;0.57;;;0.57;;
40649;SDS011;26342;42.826;23.992;2022-12-07T11:57:27;0.57;;;0.57;;
40649;SDS011;26342;42.826;23.992;2022-12-07T12:00:05;2.60;;;2.22;;
40649;SDS011;26342;42.826;23.992;2022-12-07T12:02:41;1.00;;;0.50;;
40649;SDS011;26342;42.826;23.992;2022-12-07T12:05:18;2.40;;;1.80;;
40649;SDS011;26342;42.826;23.992;2022-12-07T12:07:48;2.03;;;1.42;;
40649;SDS011;26342;42.826;23.992;2022-12-07T12:10:37;1.20;;;1.10;;
40649;SDS011;26342;42.826;23.992;2022-12-07T12:13:25;1.23;;;1.17;;
40649;SDS011;26342;42.826;23.992;2022-12-07T12:21:20;6.15;;;4.10;;
40649;SDS011;26342;42.826;23.992;2022-12-07T12:24:00;1.55;;;1.15;;
40649;SDS011;26342;42.826;23.992;2022-12-07T12:26:55;7.63;;;3.33;;
40649;SDS011;26342;42.826;23.992;2022-12-07T12:29:30;2.42;;;2.22;;
40649;SDS011;26342;42.826;23.992;2022-12-07T12:32:12;0.88;;;0.85;;
40649;SDS011;26342;42.826;23.992;2022-12-07T12:34:42;2.92;;;0.82;;
40649;SDS011;26342;42.826;23.992;2022-12-07T12:45:32;1.08;;;0.98;;
40649;SDS011;26342;42.826;23.992;2022-12-07T12:47:58;1.65;;;0.90;;
40649;SDS011;26342;42.826;23.992;2022-12-07T12:50:35;1.02;;;0.88;;
40649;SDS011;26342;42.826;23.992;2022-12-07T12:53:03;3.92;;;2.00;;
40649;SDS011;26342;42.826;23.992;2022-12-07T13:00:48;3.70;;;1.67;;
40649;SDS011;26342;42.826;23.992;2022-12-07T13:08:49;7.75;;;3.55;;
40649;SDS011;26342;42.826;23.992;2022-12-07T13:11:17;12.75;;;2.40;;
40649;SDS011;26342;42.826;23.992;2022-12-07T13:13:50;9.73;;;2.45;;
40649;SDS011;26342;42.826;23.992;2022-12-07T13:18:40;3.83;;;2.63;;
40649;SDS011;26342;42.826;23.992;2022-12-07T13:23:40;9.15;;;3.03;;
40649;SDS011;26342;42.826;23.992;2022-12-07T13:31:44;2.70;;;2.13;;
40649;SDS011;26342;42.826;23.992;2022-12-07T13:34:35;7.40;;;3.83;;
40649;SDS011;26342;42.826;23.992;2022-12-07T13:37:14;4.93;;;3.22;;
40649;SDS011;26342;42.826;23.992;2022-12-07T13:39:52;5.40;;;2.72;;
40649;SDS011;26342;42.826;23.992;2022-12-07T13:42:31;9.25;;;5.20;;
40649;SDS011;26342;42.826;23.992;2022-12-07T13:44:59;11.02;;;3.60;;
40649;SDS011;26342;42.826;23.992;2022-12-07T13:49:57;9.93;;;6.68;;
40649;SDS011;26342;42.826;23.992;2022-12-07T13:52:29;11.05;;;5.45;;
40649;SDS011;26342;42.826;23.992;2022-12-07T13:57:26;12.77;;;7.57;;
40649;SDS011;26342;42.826;23.992;2022-12-07T13:59:55;9.63;;;5.85;;
40649;SDS011;26342;42.826;23.992;2022-12-07T14:04:51;8.73;;;5.10;;
40649;SDS011;26342;42.826;23.992;2022-12-07T14:10:22;2.50;;;1.67;;
40649;SDS011;26342;42.826;23.992;2022-12-07T14:12:49;2.28;;;1.90;;
40649;SDS011;26342;42.826;23.992;2022-12-07T14:15:19;4.25;;;2.97;;
40649;SDS011;26342;42.826;23.992;2022-12-07T14:17:51;6.50;;;4.93;;
40649;SDS011;26342;42.826;23.992;2022-12-07T14:20:35;4.88;;;3.08;;
40649;SDS011;26342;42.826;23.992;2022-12-07T14:23:03;1.60;;;1.35;;
40649;SDS011;26342;42.826;23.992;2022-12-07T14:25:49;5.05;;;2.40;;
40649;SDS011;26342;42.826;23.992;2022-12-07T14:28:29;3.53;;;2.88;;
40649;SDS011;26342;42.826;23.992;2022-12-07T14:30:56;5.55;;;2.88;;
40649;SDS011;26342;42.826;23.992;2022-12-07T14:33:22;10.88;;;7.97;;
40649;SDS011;26342;42.826;23.992;2022-12-07T14:35:49;4.18;;;3.03;;
40649;SDS011;26342;42.826;23.992;2022-12-07T14:38:14;0.88;;;0.85;;
40649;SDS011;26342;42.826;23.992;2022-12-07T14:40:40;11.18;;;4.43;;
40649;SDS011;26342;42.826;23.992;2022-12-07T14:43:10;2.40;;;2.20;;
40649;SDS011;26342;42.826;23.992;2022-12-07T14:45:39;5.15;;;2.80;;
40649;SDS011;26342;42.826;23.992;2022-12-07T14:48:05;6.38;;;3.10;;
40649;SDS011;26342;42.826;23.992;2022-12-07T14:50:34;1.75;;;1.48;;
40649;SDS011;26342;42.826;23.992;2022-12-07T14:53:02;5.40;;;3.08;;
40649;SDS011;26342;42.826;23.992;2022-12-07T14:55:35;3.50;;;1.73;;
40649;SDS011;26342;42.826;23.992;2022-12-07T14:58:01;8.70;;;5.82;;
40649;SDS011;26342;42.826;23.992;2022-12-07T15:00:27;6.53;;;4.15;;
40649;SDS011;26342;42.826;23.992;2022-12-07T15:02:53;4.43;;;3.40;;
40649;SDS011;26342;42.826;23.992;2022-12-07T15:05:19;8.23;;;4.05;;
40649;SDS011;26342;42.826;23.992;2022-12-07T15:07:45;4.13;;;1.83;;
40649;SDS011;26342;42.826;23.992;2022-12-07T15:10:25;3.58;;;3.08;;
40649;SDS011;26342;42.826;23.992;2022-12-07T15:12:57;5.75;;;2.63;;
40649;SDS011;26342;42.826;23.992;2022-12-07T15:15:44;7.97;;;1.88;;
40649;SDS011;26342;42.826;23.992;2022-12-07T15:18:09;5.05;;;2.22;;
40649;SDS011;26342;42.826;23.992;2022-12-07T15:20:35;3.35;;;1.27;;
40649;SDS011;26342;42.826;23.992;2022-12-07T15:23:00;4.18;;;1.63;;
40649;SDS011;26342;42.826;23.992;2022-12-07T15:25:26;0.70;;;0.40;;
40649;SDS011;26342;42.826;23.992;2022-12-07T15:27:51;2.30;;;1.80;;
40649;SDS011;26342;42.826;23.992;2022-12-07T15:30:16;3.08;;;2.30;;
40649;SDS011;26342;42.826;23.992;2022-12-07T15:32:42;1.83;;;1.67;;
40649;SDS011;26342;42.826;23.992;2022-12-07T15:35:07;7.88;;;1.85;;
40649;SDS011;26342;42.826;23.992;2022-12-07T15:37:34;3.10;;;1.67;;
40649;SDS011;26342;42.826;23.992;2022-12-07T15:39:59;3.30;;;1.70;;
40649;SDS011;26342;42.826;23.992;2022-12-07T15:42:25;4.00;;;2.42;;
40649;SDS011;26342;42.826;23.992;2022-12-07T15:44:50;4.40;;;1.42;;
40649;SDS011;26342;42.826;23.992;2022-12-07T15:47:35;5.32;;;0.93;;
40649;SDS011;26342;42.826;23.992;2022-12-07T15:50:06;3.58;;;3.08;;
40649;SDS011;26342;42.826;23.992;2022-12-07T15:52:34;1.63;;;1.52;;
40649;SDS011;26342;42.826;23.992;2022-12-07T15:54:59;2.38;;;2.17;;
40649;SDS011;26342;42.826;23.992;2022-12-07T15:57:27;7.65;;;2.83;;
40649;SDS011;26342;42.826;23.992;2022-12-07T15:59:53;14.25;;;6.22;;
40649;SDS011;26342;42.826;23.992;2022-12-07T16:02:18;21.15;;;7.57;;
40649;SDS011;26342;42.826;23.992;2022-12-07T16:04:44;10.88;;;6.82;;
40649;SDS011;26342;42.826;23.992;2022-12-07T16:07:10;3.75;;;3.38;;
40649;SDS011;26342;42.826;23.992;2022-12-07T16:09:36;10.63;;;6.72;;
40649;SDS011;26342;42.826;23.992;2022-12-07T16:12:02;6.43;;;3.83;;
40649;SDS011;26342;42.826;23.992;2022-12-07T16:14:27;3.95;;;2.70;;
40649;SDS011;26342;42.826;23.992;2022-12-07T16:16:53;5.95;;;5.13;;
40649;SDS011;26342;42.826;23.992;2022-12-07T16:19:18;17.90;;;7.20;;
40649;SDS011;26342;42.826;23.992;2022-12-07T16:21:44;14.75;;;7.72;;
40649;SDS011;26342;42.826;23.992;2022-12-07T16:24:09;10.18;;;8.35;;
40649;SDS011;26342;42.826;23.992;2022-12-07T16:26:35;11.05;;;6.38;;
40649;SDS011;26342;42.826;23.992;2022-12-07T16:29:00;7.93;;;4.82;;
40649;SDS011;26342;42.826;23.992;2022-12-07T16:31:26;7.22;;;4.03;;
40649;SDS011;26342;42.826;23.992;2022-12-07T16:33:53;7.93;;;4.28;;
40649;SDS011;26342;42.826;23.992;2022-12-07T16:36:19;14.70;;;4.30;;
40649;SDS011;26342;42.826;23.992;2022-12-07T16:38:47;22.23;;;2.03;;
40649;SDS011;26342;42.826;23.992;2022-12-07T16:41:13;8.18;;;4.43;;
40649;SDS011;26342;42.826;23.992;2022-12-07T16:43:39;8.55;;;4.15;;
40649;SDS011;26342;42.826;23.992;2022-12-07T16:46:04;10.20;;;2.55;;
40649;SDS011;26342;42.826;23.992;2022-12-07T16:48:30;11.77;;;6.65;;